Time;durP1;ratioP1;P1;durP2;ratioP2;P2;SDS_P1;SDS_P2;PMS_P1;PMS_P2;Temp;Humidity;BMP_temperature;BMP_pressure;BME280_temperature;BME280_humidity;BME280_pressure;Samples;Min_cycle;Max_cycle;Signal;HPM_P1;HPM_P2
2021/09/12 00:00:33;;;;;;;20.52;18.00;;;17.80;98.00;;;;;;4924345;29;20028;-85
2021/09/12 00:02:58;;;;;;;20.52;17.23;;;17.80;98.00;;;;;;4907201;29;20017;-86
2021/09/12 00:05:24;;;;;;;24.23;17.77;;;17.80;98.00;;;;;;4891585;29;20028;-85
2021/09/12 00:07:50;;;;;;;22.83;17.02;;;17.80;97.90;;;;;;4907029;29;20088;-85
2021/09/12 00:10:16;;;;;;;22.63;17.88;;;17.80;97.90;;;;;;4907364;29;20016;-85
2021/09/12 00:12:42;;;;;;;23.90;18.20;;;17.80;97.90;;;;;;4890536;29;20142;-86
2021/09/12 00:15:10;;;;;;;22.02;17.98;;;17.80;97.90;;;;;;4889854;29;20052;-85
2021/09/12 00:17:35;;;;;;;24.30;19.08;;;17.80;97.90;;;;;;4936760;29;20028;-86
2021/09/12 00:20:01;;;;;;;25.20;18.67;;;17.80;97.90;;;;;;4890085;29;20024;-85
2021/09/12 00:22:27;;;;;;;24.90;19.17;;;17.80;97.90;;;;;;4889853;29;20029;-86
2021/09/12 00:24:53;;;;;;;22.05;18.80;;;17.70;97.90;;;;;;4889256;29;20073;-85
2021/09/12 00:27:19;;;;;;;25.35;19.15;;;17.70;97.90;;;;;;4905222;29;20017;-85
2021/09/12 00:29:44;;;;;;;21.77;17.63;;;17.70;97.90;;;;;;4921179;29;20061;-85
2021/09/12 00:32:10;;;;;;;25.50;19.67;;;17.70;97.90;;;;;;4888230;29;20044;-85
2021/09/12 00:34:36;;;;;;;22.60;17.83;;;17.70;97.90;;;;;;4933283;29;20045;-86
2021/09/12 00:37:01;;;;;;;19.10;14.82;;;17.60;97.90;;;;;;4877313;29;20481;-85
2021/09/12 00:39:29;;;;;;;18.63;14.10;;;17.60;97.90;;;;;;4869869;29;20036;-86
2021/09/12 00:41:55;;;;;;;17.92;13.25;;;17.60;97.70;;;;;;4885265;29;20060;-86
2021/09/12 00:44:23;;;;;;;16.17;11.73;;;17.50;97.60;;;;;;4916186;29;20028;-86
2021/09/12 00:46:48;;;;;;;18.60;11.15;;;17.40;97.20;;;;;;4917202;29;20024;-86
2021/09/12 00:49:15;;;;;;;14.88;10.35;;;17.30;97.00;;;;;;4872288;29;20088;-87
2021/09/12 00:51:41;;;;;;;15.20;11.50;;;17.30;96.90;;;;;;4886539;29;20032;-86
2021/09/12 00:54:09;;;;;;;13.73;10.02;;;17.30;96.90;;;;;;4887251;29;20040;-86
2021/09/12 00:56:40;;;;;;;13.90;10.50;;;17.20;96.80;;;;;;4917697;29;20127;-86
2021/09/12 00:59:16;;;;;;;13.18;9.73;;;17.10;96.70;;;;;;4917400;29;20028;-86
2021/09/12 01:01:42;;;;;;;14.77;9.52;;;17.00;96.70;;;;;;4885914;29;20061;-86
2021/09/12 01:04:09;;;;;;;14.95;9.30;;;16.90;96.60;;;;;;4917539;29;20068;-87
2021/09/12 01:06:35;;;;;;;15.30;9.52;;;16.80;96.50;;;;;;4917841;29;20033;-85
2021/09/12 01:09:01;;;;;;;10.93;9.20;;;16.70;96.50;;;;;;4874059;29;20033;-86
2021/09/12 01:11:27;;;;;;;12.20;8.95;;;16.70;96.40;;;;;;4890597;29;20021;-86
2021/09/12 01:13:53;;;;;;;14.82;9.23;;;16.60;96.40;;;;;;4920670;29;20036;-86
2021/09/12 01:16:20;;;;;;;13.80;9.15;;;16.50;96.30;;;;;;4902897;29;20033;-86
2021/09/12 01:18:47;;;;;;;11.45;8.23;;;16.50;96.20;;;;;;4917106;29;20021;-85
2021/09/12 01:21:15;;;;;;;11.80;9.23;;;16.40;96.20;;;;;;4917729;29;20039;-86
2021/09/12 01:23:41;;;;;;;14.23;9.90;;;16.30;96.20;;;;;;4902077;29;20119;-86
2021/09/12 01:26:07;;;;;;;13.32;10.15;;;16.20;96.30;;;;;;4917106;29;20472;-86
2021/09/12 01:28:33;;;;;;;13.77;9.73;;;16.10;96.40;;;;;;4902402;29;20040;-86
2021/09/12 01:31:00;;;;;;;15.93;10.38;;;16.00;96.60;;;;;;4884594;29;20052;-86
2021/09/12 01:33:26;;;;;;;14.32;10.25;;;15.90;96.70;;;;;;4872481;29;20031;-86
2021/09/12 01:35:52;;;;;;;13.50;10.63;;;15.80;96.90;;;;;;4886205;29;20064;-86
2021/09/12 01:38:18;;;;;;;18.00;11.32;;;15.70;97.00;;;;;;4871074;29;20499;-86
2021/09/12 01:40:44;;;;;;;16.60;11.23;;;15.70;97.20;;;;;;4870159;29;20063;-83
2021/09/12 01:43:10;;;;;;;15.85;11.43;;;15.60;97.30;;;;;;4887455;29;20045;-84
2021/09/12 01:45:35;;;;;;;16.13;11.70;;;15.60;97.50;;;;;;4871721;29;20043;-84
2021/09/12 01:48:01;;;;;;;16.27;12.32;;;15.50;97.60;;;;;;4872972;29;20124;-84
2021/09/12 01:50:28;;;;;;;17.65;13.15;;;15.50;97.70;;;;;;4887951;29;20037;-85
2021/09/12 01:52:54;;;;;;;16.63;12.60;;;15.40;97.90;;;;;;4902817;29;20108;-84
2021/09/12 01:55:20;;;;;;;17.70;12.57;;;15.40;97.80;;;;;;4917892;29;20127;-85
2021/09/12 01:57:46;;;;;;;15.90;12.10;;;15.30;97.90;;;;;;4950549;29;20019;-85
2021/09/12 02:00:12;;;;;;;19.25;13.05;;;15.30;98.00;;;;;;4939362;29;20008;-86
2021/09/12 02:02:38;;;;;;;14.82;11.32;;;15.20;98.00;;;;;;4924196;29;20020;-86
2021/09/12 02:05:06;;;;;;;16.55;11.95;;;15.20;98.00;;;;;;4924253;29;20044;-86
2021/09/12 02:07:32;;;;;;;15.15;11.77;;;15.10;98.10;;;;;;4909072;29;20052;-86
2021/09/12 02:09:58;;;;;;;19.20;11.77;;;15.10;98.10;;;;;;4939615;29;20023;-85
2021/09/12 02:12:24;;;;;;;19.15;12.55;;;15.10;98.10;;;;;;4908810;29;20092;-87
2021/09/12 02:14:49;;;;;;;19.45;13.25;;;15.00;98.20;;;;;;4908793;29;20037;-87
2021/09/12 02:17:15;;;;;;;16.77;13.30;;;15.00;98.30;;;;;;4908373;29;20036;-86
2021/09/12 02:19:41;;;;;;;15.82;12.45;;;14.90;98.30;;;;;;4923715;29;20063;-86
2021/09/12 02:22:07;;;;;;;19.25;12.95;;;14.90;98.30;;;;;;4954515;28;20020;-85
2021/09/12 02:24:34;;;;;;;19.33;13.52;;;14.80;98.40;;;;;;4955227;29;20096;-85
2021/09/12 02:27:00;;;;;;;19.30;12.75;;;14.80;98.40;;;;;;4955257;28;20030;-85
2021/09/12 02:29:25;;;;;;;17.17;12.60;;;14.80;98.50;;;;;;4907876;29;20100;-85
2021/09/12 02:31:52;;;;;;;15.43;12.90;;;14.70;98.50;;;;;;4908460;29;20129;-86
2021/09/12 02:34:19;;;;;;;18.02;12.88;;;14.70;98.60;;;;;;4923782;29;20464;-86
2021/09/12 02:36:44;;;;;;;16.63;12.10;;;14.70;98.60;;;;;;4948910;29;20122;-86
2021/09/12 02:39:10;;;;;;;19.95;12.52;;;14.60;98.60;;;;;;4890441;29;20051;-87
2021/09/12 02:41:36;;;;;;;16.98;12.63;;;14.60;98.70;;;;;;4888095;29;20031;-87
2021/09/12 02:44:01;;;;;;;15.63;12.48;;;14.60;98.70;;;;;;4887216;29;20372;-88
2021/09/12 02:46:27;;;;;;;18.20;12.52;;;14.60;98.70;;;;;;4901761;29;20384;-87
2021/09/12 02:48:53;;;;;;;20.35;12.75;;;14.50;98.70;;;;;;4901648;29;20306;-87
2021/09/12 02:51:19;;;;;;;18.15;12.80;;;14.50;98.70;;;;;;4918410;29;20042;-87
2021/09/12 02:53:44;;;;;;;20.13;13.55;;;14.50;98.80;;;;;;4918507;29;20040;-87
2021/09/12 02:56:10;;;;;;;17.05;12.73;;;14.50;98.80;;;;;;4872475;29;20140;-87
2021/09/12 02:58:36;;;;;;;18.63;13.55;;;14.50;98.80;;;;;;4914050;29;20025;-87
2021/09/12 03:01:01;;;;;;;16.17;12.25;;;14.40;98.80;;;;;;4914555;29;20453;-87
2021/09/12 03:03:27;;;;;;;14.68;12.38;;;14.40;98.90;;;;;;4883614;29;20033;-86
2021/09/12 03:05:53;;;;;;;17.90;12.23;;;14.40;98.90;;;;;;4882842;29;20039;-86
2021/09/12 03:08:19;;;;;;;14.82;11.35;;;14.40;98.90;;;;;;4895093;29;20033;-86
2021/09/12 03:10:45;;;;;;;16.75;11.65;;;14.50;99.00;;;;;;4883049;29;20036;-87
2021/09/12 03:13:11;;;;;;;17.60;11.38;;;14.50;99.00;;;;;;4882926;29;20045;-87
2021/09/12 03:15:36;;;;;;;15.70;12.20;;;14.50;98.90;;;;;;4913787;29;20029;-87
2021/09/12 03:18:02;;;;;;;17.08;12.70;;;14.60;98.90;;;;;;4900527;29;20088;-87
2021/09/12 03:20:28;;;;;;;14.85;11.25;;;14.60;98.90;;;;;;4870144;29;20033;-87
2021/09/12 03:22:53;;;;;;;15.35;10.65;;;14.60;98.80;;;;;;4873707;29;20025;-87
2021/09/12 03:25:19;;;;;;;19.80;10.45;;;14.70;98.80;;;;;;4887781;29;20108;-88
2021/09/12 03:27:45;;;;;;;13.70;10.25;;;14.70;98.70;;;;;;4871595;29;20080;-87
2021/09/12 03:30:11;;;;;;;14.88;9.75;;;14.70;98.50;;;;;;4919979;29;20032;-87
2021/09/12 03:32:39;;;;;;;15.05;9.65;;;14.70;98.40;;;;;;4888673;29;20080;-87
2021/09/12 03:35:06;;;;;;;13.57;10.10;;;14.60;98.30;;;;;;4919977;29;20045;-87
2021/09/12 03:37:33;;;;;;;12.77;9.25;;;14.60;98.30;;;;;;4887735;29;20546;-87
2021/09/12 03:39:59;;;;;;;13.55;9.98;;;14.50;98.30;;;;;;4918542;29;20028;-85
2021/09/12 03:42:25;;;;;;;14.73;8.80;;;14.50;98.30;;;;;;4903587;29;20032;-87
2021/09/12 03:44:50;;;;;;;13.23;9.30;;;14.40;98.20;;;;;;4902712;29;20036;-87
2021/09/12 03:47:16;;;;;;;17.38;10.23;;;14.30;98.30;;;;;;4869866;29;20033;-87
2021/09/12 03:49:42;;;;;;;15.70;10.65;;;14.30;98.30;;;;;;4885503;29;20033;-87
2021/09/12 03:52:08;;;;;;;15.52;10.70;;;14.30;98.30;;;;;;4885248;29;20481;-87
2021/09/12 03:54:34;;;;;;;16.33;10.38;;;14.20;98.30;;;;;;4917093;29;20029;-87
2021/09/12 03:56:59;;;;;;;17.45;10.93;;;14.20;98.30;;;;;;4888114;29;20464;-87
2021/09/12 03:59:25;;;;;;;14.57;10.38;;;14.10;98.30;;;;;;4888324;29;20035;-86
2021/09/12 04:01:51;;;;;;;15.73;10.98;;;14.10;98.30;;;;;;4888282;29;20054;-87
2021/09/12 04:04:16;;;;;;;17.42;11.25;;;14.10;98.40;;;;;;4888865;29;20029;-87
2021/09/12 04:06:42;;;;;;;15.98;11.68;;;14.10;98.40;;;;;;4888219;29;20113;-86
2021/09/12 04:09:08;;;;;;;14.30;11.70;;;14.10;98.40;;;;;;4903376;29;20111;-87
2021/09/12 04:11:33;;;;;;;21.92;12.20;;;14.10;98.40;;;;;;4888974;29;20032;-87
2021/09/12 04:13:59;;;;;;;16.60;11.88;;;14.00;98.30;;;;;;4888466;29;20039;-87
2021/09/12 04:16:25;;;;;;;15.75;11.00;;;14.10;98.30;;;;;;4904096;29;20115;-88
2021/09/12 04:18:50;;;;;;;16.52;11.85;;;14.00;98.30;;;;;;4904218;29;20032;-87
2021/09/12 04:21:16;;;;;;;18.13;12.25;;;14.00;98.30;;;;;;4903767;29;20070;-86
2021/09/12 04:23:42;;;;;;;17.98;11.82;;;14.00;98.40;;;;;;4919432;29;20028;-87
2021/09/12 04:26:07;;;;;;;14.70;11.90;;;13.90;98.40;;;;;;4889033;29;20028;-86
2021/09/12 04:28:33;;;;;;;15.38;11.95;;;13.90;98.40;;;;;;4888763;29;20170;-86
2021/09/12 04:30:59;;;;;;;16.63;11.00;;;13.80;98.40;;;;;;4887680;29;20085;-86
2021/09/12 04:33:25;;;;;;;17.30;11.93;;;13.80;98.40;;;;;;4887928;29;20047;-86
2021/09/12 04:35:50;;;;;;;15.25;10.98;;;13.70;98.50;;;;;;4918788;29;20051;-87
2021/09/12 04:38:16;;;;;;;15.77;11.68;;;13.70;98.50;;;;;;4888013;29;20099;-87
2021/09/12 04:40:41;;;;;;;17.40;12.23;;;13.70;98.50;;;;;;4918948;29;20131;-88
2021/09/12 04:43:07;;;;;;;19.08;11.50;;;13.60;98.60;;;;;;4903250;29;20036;-85
2021/09/12 04:45:33;;;;;;;16.77;11.00;;;13.60;98.60;;;;;;4887521;29;20147;-87
2021/09/12 04:47:58;;;;;;;16.58;11.18;;;13.50;98.60;;;;;;4887633;29;20036;-87
2021/09/12 04:50:24;;;;;;;16.48;11.13;;;13.50;98.70;;;;;;4920165;29;20500;-87
2021/09/12 04:52:50;;;;;;;15.52;10.75;;;13.40;98.70;;;;;;4903171;29;20392;-88
2021/09/12 04:55:16;;;;;;;13.07;10.80;;;13.50;98.80;;;;;;4928174;29;20477;-88
2021/09/12 04:57:44;;;;;;;18.75;11.52;;;13.40;98.80;;;;;;4884278;29;20040;-88
2021/09/12 05:00:11;;;;;;;18.48;11.25;;;13.40;98.80;;;;;;4899761;29;20074;-86
2021/09/12 05:02:37;;;;;;;17.60;11.23;;;13.40;98.80;;;;;;4900914;29;20029;-87
2021/09/12 05:05:03;;;;;;;13.07;10.63;;;13.40;98.90;;;;;;4868482;29;20033;-88
2021/09/12 05:07:29;;;;;;;16.35;10.35;;;13.30;98.90;;;;;;4899058;29;20024;-87
2021/09/12 05:09:55;;;;;;;18.83;12.10;;;13.30;98.90;;;;;;4884012;29;20108;-87
2021/09/12 05:12:20;;;;;;;20.83;11.35;;;13.30;99.00;;;;;;4868086;29;20036;-86
2021/09/12 05:14:46;;;;;;;20.98;12.02;;;13.50;99.10;;;;;;4867769;29;20041;-87
2021/09/12 05:17:12;;;;;;;15.45;11.43;;;13.60;99.10;;;;;;4869050;29;20040;-87
2021/09/12 05:19:37;;;;;;;13.55;10.88;;;13.70;99.10;;;;;;4868572;29;20065;-87
2021/09/12 05:22:03;;;;;;;19.42;11.30;;;13.80;99.20;;;;;;4886651;29;20025;-87
2021/09/12 05:24:29;;;;;;;13.27;10.48;;;13.90;99.00;;;;;;4873405;29;20112;-86
2021/09/12 05:26:55;;;;;;;14.32;9.85;;;14.00;98.90;;;;;;4873487;29;20035;-87
2021/09/12 05:29:23;;;;;;;18.92;10.68;;;14.10;98.80;;;;;;4917629;29;20388;-88
2021/09/12 05:31:50;;;;;;;15.05;10.73;;;14.20;98.80;;;;;;4901816;29;20025;-87
2021/09/12 05:34:16;;;;;;;16.60;10.68;;;14.30;98.80;;;;;;4883694;29;20052;-87
2021/09/12 05:36:42;;;;;;;16.80;11.02;;;14.60;98.80;;;;;;4884873;29;20037;-87
2021/09/12 05:39:08;;;;;;;13.07;10.40;;;14.90;98.60;;;;;;4868600;29;20453;-85
2021/09/12 05:41:33;;;;;;;16.85;10.40;;;15.30;98.30;;;;;;4899538;29;20037;-85
2021/09/12 05:43:59;;;;;;;14.88;9.48;;;15.60;97.40;;;;;;4867299;29;20033;-84
2021/09/12 05:46:25;;;;;;;12.20;8.38;;;15.60;96.90;;;;;;4882755;29;20029;-84
2021/09/12 05:48:51;;;;;;;10.65;7.93;;;15.50;96.70;;;;;;4914443;29;20100;-85
2021/09/12 05:51:17;;;;;;;12.98;8.07;;;15.50;96.60;;;;;;4897987;29;20028;-85
2021/09/12 05:53:43;;;;;;;14.32;8.88;;;15.50;96.70;;;;;;4898408;29;20041;-84
2021/09/12 05:56:08;;;;;;;12.13;7.75;;;15.60;96.50;;;;;;4898956;29;20131;-84
2021/09/12 05:58:34;;;;;;;13.27;8.02;;;15.70;96.30;;;;;;4868035;29;20032;-85
2021/09/12 06:01:00;;;;;;;10.82;8.27;;;15.80;96.00;;;;;;4914975;29;20029;-86
2021/09/12 06:03:26;;;;;;;14.02;8.20;;;15.80;95.90;;;;;;4914243;29;20032;-84
2021/09/12 06:05:52;;;;;;;11.63;7.50;;;15.70;95.90;;;;;;4897407;29;20032;-84
2021/09/12 06:08:18;;;;;;;12.23;7.47;;;15.70;95.70;;;;;;4867688;29;20084;-86
2021/09/12 06:10:43;;;;;;;10.95;7.38;;;15.60;95.70;;;;;;4898783;29;20029;-86
2021/09/12 06:13:09;;;;;;;10.93;7.82;;;15.70;95.70;;;;;;4898938;29;20049;-86
2021/09/12 06:15:35;;;;;;;11.65;8.38;;;15.60;95.70;;;;;;4899718;29;20060;-85
2021/09/12 06:18:02;;;;;;;13.68;8.70;;;15.60;95.70;;;;;;4899879;29;20473;-86
2021/09/12 06:20:27;;;;;;;11.45;8.52;;;15.60;95.80;;;;;;4902183;29;20033;-85
2021/09/12 06:22:53;;;;;;;9.07;7.25;;;15.60;95.60;;;;;;4915024;29;20031;-85
2021/09/12 06:25:22;;;;;;;9.57;7.80;;;15.60;95.90;;;;;;4899563;29;20029;-88
2021/09/12 06:27:48;;;;;;;12.55;8.02;;;15.60;95.70;;;;;;4900024;29;20036;-85
2021/09/12 06:30:15;;;;;;;8.73;7.70;;;15.70;95.70;;;;;;4900582;29;20032;-86
2021/09/12 06:32:41;;;;;;;12.73;8.00;;;15.80;95.70;;;;;;4915585;29;20077;-85
2021/09/12 06:35:07;;;;;;;11.65;8.38;;;15.80;95.50;;;;;;4916635;29;20125;-85
2021/09/12 06:37:33;;;;;;;15.32;8.10;;;15.90;95.50;;;;;;4915965;29;20119;-85
2021/09/12 06:39:59;;;;;;;12.85;7.75;;;15.90;95.40;;;;;;4900666;29;20068;-85
2021/09/12 06:42:25;;;;;;;12.45;9.13;;;16.00;95.30;;;;;;4883111;29;20036;-85
2021/09/12 06:44:51;;;;;;;11.25;7.45;;;16.10;95.10;;;;;;4882871;29;20080;-84
2021/09/12 06:47:16;;;;;;;11.02;7.43;;;16.20;94.90;;;;;;4883177;29;20064;-85
2021/09/12 06:49:42;;;;;;;10.82;7.10;;;16.20;94.70;;;;;;4914077;29;20437;-85
2021/09/12 06:52:08;;;;;;;12.30;7.47;;;16.40;94.60;;;;;;4883164;29;20507;-84
2021/09/12 06:54:34;;;;;;;9.50;7.43;;;16.50;94.50;;;;;;4913417;29;20029;-85
2021/09/12 06:57:02;;;;;;;11.13;7.47;;;16.60;94.30;;;;;;4887533;29;20123;-86
2021/09/12 06:59:28;;;;;;;11.25;7.45;;;16.80;94.10;;;;;;4921347;29;20066;-85
2021/09/12 07:01:54;;;;;;;9.55;7.05;;;17.00;93.70;;;;;;4937711;29;20028;-84
2021/09/12 07:04:19;;;;;;;10.95;7.15;;;17.30;93.30;;;;;;4922274;29;20036;-85
2021/09/12 07:06:45;;;;;;;10.20;6.97;;;17.80;92.50;;;;;;4921445;29;20020;-85
2021/09/12 07:09:11;;;;;;;10.45;6.00;;;18.10;91.30;;;;;;4921012;29;20115;-85
2021/09/12 07:11:38;;;;;;;6.53;5.35;;;18.50;90.70;;;;;;4905435;29;20039;-85
2021/09/12 07:14:04;;;;;;;11.88;7.07;;;18.80;89.90;;;;;;4936651;29;20456;-84
2021/09/12 07:16:30;;;;;;;7.88;5.28;;;18.90;88.50;;;;;;4936387;29;20469;-84
2021/09/12 07:18:56;;;;;;;7.90;5.95;;;19.00;86.80;;;;;;4904289;29;20025;-83
2021/09/12 07:21:22;;;;;;;8.15;5.28;;;19.00;86.90;;;;;;4903996;29;20036;-84
2021/09/12 07:23:47;;;;;;;8.57;5.30;;;19.40;87.60;;;;;;4935473;29;20032;-84
2021/09/12 07:26:13;;;;;;;7.88;4.72;;;20.40;84.20;;;;;;4904340;29;20039;-85
2021/09/12 07:28:39;;;;;;;7.60;4.55;;;21.20;81.20;;;;;;4935812;29;20024;-84
2021/09/12 07:31:04;;;;;;;7.22;3.50;;;22.00;77.80;;;;;;4891386;29;20143;-85
2021/09/12 07:33:30;;;;;;;6.78;3.60;;;22.90;74.30;;;;;;4938751;29;20024;-84
2021/09/12 07:35:56;;;;;;;7.30;3.83;;;23.60;72.00;;;;;;4940568;29;20063;-86
2021/09/12 07:38:21;;;;;;;6.82;3.30;;;24.20;69.30;;;;;;4893512;29;20108;-85
2021/09/12 07:40:47;;;;;;;5.00;3.10;;;24.60;67.50;;;;;;4938968;29;20127;-85
2021/09/12 07:43:13;;;;;;;6.30;3.50;;;24.90;66.60;;;;;;4907487;29;20044;-86
2021/09/12 07:45:38;;;;;;;8.00;3.95;;;25.10;64.90;;;;;;4926086;29;20028;-85
2021/09/12 07:48:05;;;;;;;4.50;3.75;;;25.10;64.50;;;;;;4907686;29;20032;-87
2021/09/12 07:50:30;;;;;;;6.30;3.50;;;25.30;63.90;;;;;;4905754;29;20060;-87
2021/09/12 07:52:56;;;;;;;6.45;3.38;;;25.70;63.40;;;;;;4905996;29;20036;-87
2021/09/12 07:55:22;;;;;;;6.22;3.42;;;26.00;62.10;;;;;;4924231;29;20055;-85
2021/09/12 07:57:49;;;;;;;5.38;2.80;;;26.40;61.20;;;;;;4892709;29;20457;-85
2021/09/12 08:00:14;;;;;;;8.18;3.75;;;26.50;60.00;;;;;;4909335;29;20091;-85
2021/09/12 08:02:40;;;;;;;5.20;3.10;;;26.60;58.30;;;;;;4938892;29;20131;-87
2021/09/12 08:05:07;;;;;;;6.55;3.15;;;26.70;59.10;;;;;;4906072;29;20416;-87
2021/09/12 08:07:32;;;;;;;4.25;2.50;;;26.90;59.10;;;;;;4906233;29;20036;-86
2021/09/12 08:09:59;;;;;;;5.65;2.72;;;27.30;58.40;;;;;;4906676;29;20119;-87
2021/09/12 08:12:25;;;;;;;6.95;2.78;;;27.60;56.60;;;;;;4891651;29;20031;-85
2021/09/12 08:14:50;;;;;;;4.93;2.63;;;27.60;55.50;;;;;;4891542;29;20036;-86
2021/09/12 08:17:16;;;;;;;5.82;2.17;;;27.80;55.50;;;;;;4892070;29;20352;-87
2021/09/12 08:19:42;;;;;;;5.38;2.42;;;27.80;54.30;;;;;;4892426;29;20047;-86
2021/09/12 08:22:08;;;;;;;7.38;2.42;;;28.00;55.10;;;;;;4938920;29;20033;-87
2021/09/12 08:24:33;;;;;;;5.50;2.40;;;28.20;53.90;;;;;;4909672;29;20040;-84
2021/09/12 08:26:59;;;;;;;3.70;1.90;;;28.30;53.20;;;;;;4894935;29;20070;-86
2021/09/12 08:29:25;;;;;;;5.03;2.30;;;28.30;53.70;;;;;;4922072;29;20048;-85
2021/09/12 08:31:51;;;;;;;4.57;2.03;;;28.40;52.80;;;;;;4936378;29;20453;-87
2021/09/12 08:34:17;;;;;;;3.33;1.67;;;28.40;53.00;;;;;;4905994;29;20048;-87
2021/09/12 08:36:44;;;;;;;4.20;1.65;;;28.50;52.40;;;;;;4920993;29;20417;-85
2021/09/12 08:39:09;;;;;;;5.68;2.28;;;28.50;52.10;;;;;;4908657;29;20028;-87
2021/09/12 08:41:35;;;;;;;3.05;1.80;;;28.60;51.50;;;;;;4920449;29;20064;-85
2021/09/12 08:44:01;;;;;;;4.65;1.60;;;28.80;51.00;;;;;;4905026;29;20115;-86
2021/09/12 08:46:27;;;;;;;6.97;1.45;;;28.80;50.70;;;;;;4937120;29;20043;-86
2021/09/12 08:48:53;;;;;;;4.35;1.52;;;28.70;51.40;;;;;;4920063;29;20024;-85
2021/09/12 08:51:19;;;;;;;3.65;1.10;;;28.80;50.20;;;;;;4904806;29;20111;-85
2021/09/12 08:53:45;;;;;;;4.32;1.30;;;29.00;49.80;;;;;;4905344;29;20036;-85
2021/09/12 08:56:11;;;;;;;4.00;1.20;;;29.10;49.40;;;;;;4893761;29;20064;-85
2021/09/12 08:58:37;;;;;;;4.40;1.73;;;29.30;50.00;;;;;;4903163;29;20053;-85
2021/09/12 09:01:04;;;;;;;4.78;1.13;;;29.30;49.20;;;;;;4906673;29;20092;-85
2021/09/12 09:03:34;;;;;;;4.22;1.40;;;28.70;49.40;;;;;;4918263;29;20044;-84
2021/09/12 09:06:11;;;;;;;2.38;1.00;;;28.30;50.20;;;;;;4871176;29;20029;-83
2021/09/12 09:08:51;;;;;;;4.47;0.80;;;28.10;50.40;;;;;;4918241;29;20028;-84
2021/09/12 09:11:31;;;;;;;3.38;0.77;;;27.80;50.70;;;;;;4917100;29;20036;-84
2021/09/12 09:14:11;;;;;;;5.55;1.00;;;27.10;51.40;;;;;;4915806;29;20032;-84
2021/09/12 09:16:36;;;;;;;3.08;0.70;;;26.60;53.50;;;;;;4884825;29;20031;-82
2021/09/12 09:19:05;;;;;;;2.80;0.75;;;26.10;53.80;;;;;;4885010;29;20029;-84
2021/09/12 09:21:38;;;;;;;3.55;0.80;;;26.00;54.80;;;;;;4901155;29;20028;-83
2021/09/12 09:24:11;;;;;;;2.65;0.60;;;26.10;54.80;;;;;;4901536;29;20095;-84
2021/09/12 09:26:39;;;;;;;5.22;0.82;;;26.90;53.60;;;;;;4916209;29;20049;-84
2021/09/12 09:29:05;;;;;;;2.25;0.60;;;27.70;51.90;;;;;;4915673;29;20081;-84
2021/09/12 09:31:31;;;;;;;3.22;0.50;;;28.10;50.90;;;;;;4899457;29;20032;-84
2021/09/12 09:34:11;;;;;;;2.78;0.60;;;28.20;49.50;;;;;;4882843;29;20541;-84
2021/09/12 09:36:37;;;;;;;2.63;0.93;;;27.90;49.70;;;;;;4915329;29;20487;-83
2021/09/12 09:39:02;;;;;;;4.18;0.55;;;27.30;50.40;;;;;;4870916;29;20029;-84
2021/09/12 09:41:36;;;;;;;4.10;0.80;;;26.80;51.00;;;;;;4888982;29;20028;-84
2021/09/12 09:44:13;;;;;;;2.95;0.60;;;26.20;52.20;;;;;;4901641;29;20029;-84
2021/09/12 09:46:43;;;;;;;3.20;0.60;;;25.90;53.10;;;;;;4899827;29;20039;-84
2021/09/12 09:49:24;;;;;;;2.13;0.57;;;25.90;53.80;;;;;;4900372;29;20187;-82
2021/09/12 09:51:59;;;;;;;2.80;0.60;;;26.00;53.50;;;;;;4885902;29;20028;-83
2021/09/12 09:54:27;;;;;;;3.58;0.70;;;25.90;53.80;;;;;;4914442;29;20032;-83
2021/09/12 09:56:54;;;;;;;4.78;0.80;;;25.70;53.60;;;;;;4883332;29;20060;-83
2021/09/12 09:59:22;;;;;;;3.88;0.60;;;25.30;54.40;;;;;;4883599;29;20044;-82
2021/09/12 10:01:50;;;;;;;2.75;0.60;;;25.00;55.00;;;;;;4900576;29;20084;-83
2021/09/12 10:04:17;;;;;;;4.22;0.60;;;24.80;55.60;;;;;;4899172;29;20060;-83
2021/09/12 10:06:43;;;;;;;3.05;0.70;;;25.10;57.10;;;;;;4900375;29;20025;-83
2021/09/12 10:09:11;;;;;;;2.75;0.68;;;25.80;55.40;;;;;;4883803;29;20056;-81
2021/09/12 10:11:38;;;;;;;2.88;0.70;;;26.60;54.50;;;;;;4901820;29;20048;-81
2021/09/12 10:14:04;;;;;;;3.65;0.77;;;27.40;52.80;;;;;;4914547;29;20055;-82
2021/09/12 10:16:31;;;;;;;3.22;0.98;;;27.90;50.50;;;;;;4915801;29;20032;-82
2021/09/12 10:18:57;;;;;;;1.65;0.50;;;28.40;50.00;;;;;;4883532;29;20084;-83
2021/09/12 10:21:28;;;;;;;2.88;0.60;;;29.00;49.50;;;;;;4898610;29;20024;-83
2021/09/12 10:24:03;;;;;;;2.90;0.63;;;29.40;47.70;;;;;;4898821;29;20104;-83
2021/09/12 10:26:35;;;;;;;2.15;0.88;;;29.40;47.60;;;;;;4882215;29;20025;-82
2021/09/12 10:29:01;;;;;;;2.55;0.80;;;29.40;47.50;;;;;;4914587;29;20038;-82
2021/09/12 10:31:26;;;;;;;3.13;0.73;;;29.50;47.70;;;;;;4902316;29;20451;-82
2021/09/12 10:34:18;;;;;;;2.22;0.60;;;29.20;47.40;;;;;;4886047;29;20070;-82
2021/09/12 10:36:45;;;;;;;6.53;0.85;;;28.90;48.20;;;;;;4867733;29;20052;-82
2021/09/12 10:39:23;;;;;;;3.67;0.50;;;28.70;48.00;;;;;;4903338;29;20096;-81
2021/09/12 10:42:17;;;;;;;2.70;0.50;;;28.70;47.60;;;;;;4885834;29;20036;-81
2021/09/12 10:44:44;;;;;;;2.30;0.45;;;28.40;47.80;;;;;;4886353;29;20032;-83
2021/09/12 10:47:12;;;;;;;3.55;0.70;;;28.00;48.90;;;;;;4901359;29;20032;-83
2021/09/12 10:49:38;;;;;;;3.60;0.70;;;28.00;49.50;;;;;;4919327;29;20033;-81
2021/09/12 10:52:08;;;;;;;4.03;0.70;;;28.20;49.00;;;;;;4917635;29;20107;-83
2021/09/12 10:55:09;;;;;;;2.08;0.50;;;28.40;48.00;;;;;;4918206;29;20032;-82
2021/09/12 10:57:37;;;;;;;4.07;0.85;;;28.80;47.80;;;;;;4874336;29;20045;-84
2021/09/12 11:00:05;;;;;;;6.47;0.60;;;29.10;46.70;;;;;;4892025;29;20063;-82
2021/09/12 11:02:32;;;;;;;3.38;0.70;;;29.10;47.50;;;;;;4892420;29;20036;-83
2021/09/12 11:04:58;;;;;;;4.13;0.70;;;29.30;47.60;;;;;;4906439;29;20032;-81
2021/09/12 11:07:24;;;;;;;2.85;0.63;;;29.50;47.30;;;;;;4892457;29;20088;-81
2021/09/12 11:09:50;;;;;;;3.75;0.80;;;29.20;47.30;;;;;;4891370;29;20029;-83
2021/09/12 11:12:16;;;;;;;3.53;0.73;;;28.80;48.00;;;;;;4872404;29;20525;-83
2021/09/12 11:14:41;;;;;;;3.13;0.70;;;28.70;48.30;;;;;;4886766;29;20064;-82
2021/09/12 11:17:10;;;;;;;3.65;0.63;;;28.90;48.20;;;;;;4887529;29;20037;-83
2021/09/12 11:19:37;;;;;;;4.10;0.70;;;29.20;47.60;;;;;;4888849;29;20107;-82
2021/09/12 11:22:04;;;;;;;4.95;0.80;;;29.30;47.30;;;;;;4887144;29;20028;-85
2021/09/12 11:24:30;;;;;;;2.75;0.70;;;29.10;46.90;;;;;;4885974;29;20120;-85
2021/09/12 11:26:56;;;;;;;4.22;0.90;;;28.80;46.80;;;;;;4904631;29;20025;-84
2021/09/12 11:29:27;;;;;;;3.33;0.68;;;28.60;48.20;;;;;;4888800;29;20025;-83
2021/09/12 11:31:59;;;;;;;2.92;0.80;;;28.50;48.90;;;;;;4918158;29;20025;-85
2021/09/12 11:34:25;;;;;;;3.05;0.70;;;28.60;49.60;;;;;;4886208;29;20135;-83
2021/09/12 11:36:52;;;;;;;4.53;1.17;;;28.30;48.50;;;;;;4888246;29;20100;-85
2021/09/12 11:39:24;;;;;;;3.50;0.80;;;28.20;49.20;;;;;;4904791;29;20115;-84
2021/09/12 11:41:51;;;;;;;3.08;0.90;;;28.30;49.60;;;;;;4885896;29;20075;-84
2021/09/12 11:44:17;;;;;;;4.13;0.82;;;28.50;48.50;;;;;;4887097;29;20032;-82
2021/09/12 11:46:51;;;;;;;4.47;1.00;;;28.60;48.80;;;;;;4870903;29;20040;-82
2021/09/12 11:49:17;;;;;;;6.03;1.83;;;28.50;48.70;;;;;;4903372;29;20033;-83
2021/09/12 11:51:48;;;;;;;2.78;0.98;;;28.30;49.50;;;;;;4903057;29;20020;-81
2021/09/12 11:54:17;;;;;;;2.35;0.90;;;28.20;49.70;;;;;;4886765;29;20039;-81
2021/09/12 11:56:51;;;;;;;4.18;1.02;;;28.20;49.80;;;;;;4885593;29;20048;-84
2021/09/12 11:59:17;;;;;;;2.90;0.90;;;28.20;49.60;;;;;;4889602;29;20040;-84
2021/09/12 12:01:47;;;;;;;5.70;0.90;;;28.30;49.50;;;;;;4907870;29;20025;-81
2021/09/12 12:04:13;;;;;;;4.30;0.90;;;28.50;49.20;;;;;;4922530;29;20025;-82
2021/09/12 12:06:39;;;;;;;4.18;1.20;;;28.70;48.80;;;;;;4922280;29;20031;-83
2021/09/12 12:09:36;;;;;;;3.60;0.90;;;28.60;49.00;;;;;;4892211;29;20113;-84
2021/09/12 12:12:08;;;;;;;5.63;1.00;;;28.50;49.40;;;;;;4892510;29;20369;-80
2021/09/12 12:14:48;;;;;;;3.13;1.08;;;28.30;49.20;;;;;;4923909;29;20033;-83
2021/09/12 12:17:17;;;;;;;3.10;0.82;;;28.20;48.90;;;;;;4896125;29;20025;-81
2021/09/12 12:19:43;;;;;;;4.22;1.13;;;27.90;49.80;;;;;;4928784;29;20115;-81
2021/09/12 12:22:09;;;;;;;4.63;1.08;;;27.70;50.30;;;;;;4896768;29;20040;-82
2021/09/12 12:24:37;;;;;;;3.20;0.85;;;27.60;51.10;;;;;;4911687;29;20142;-81
2021/09/12 12:27:11;;;;;;;4.07;1.10;;;27.70;50.80;;;;;;4927559;29;20029;-82
2021/09/12 12:29:40;;;;;;;4.78;1.10;;;27.80;50.80;;;;;;4928794;29;20044;-82
2021/09/12 12:32:07;;;;;;;3.10;1.02;;;27.70;51.50;;;;;;4913135;29;20061;-81
2021/09/12 12:34:48;;;;;;;2.53;0.80;;;27.80;50.80;;;;;;4928221;29;20048;-82
2021/09/12 12:37:16;;;;;;;4.85;1.10;;;27.90;50.50;;;;;;4897525;29;20084;-82